createdAt,value
2024-03-12T00:00:46.373Z,2609.00
2024-03-12T00:01:46.381Z,2612.00
2024-03-12T00:02:46.344Z,2611.00
2024-03-12T00:03:46.433Z,2613.00
2024-03-12T00:04:46.371Z,2612.00
2024-03-12T00:05:46.396Z,2609.00
2024-03-12T00:06:46.555Z,2608.00
2024-03-12T00:07:46.496Z,2610.00
2024-03-12T00:08:46.585Z,2601.00
2024-03-12T00:09:46.622Z,2601.00
2024-03-12T00:10:46.659Z,2602.00
2024-03-12T00:11:46.637Z,2604.00
2024-03-12T00:12:46.715Z,2607.00
2024-03-12T00:13:46.688Z,2615.00
2024-03-12T00:14:46.719Z,2609.00
2024-03-12T00:15:46.761Z,2604.00
2024-03-12T00:16:46.741Z,2600.00
2024-03-12T00:17:46.835Z,2599.00
2024-03-12T00:18:46.887Z,2601.00
2024-03-12T00:19:46.935Z,2602.00
2024-03-12T00:20:47.181Z,2595.00
2024-03-12T00:21:47.123Z,2596.00
2024-03-12T00:22:47.272Z,2592.00
2024-03-12T00:23:47.300Z,2599.00
2024-03-12T00:24:47.410Z,2593.00
2024-03-12T00:25:47.452Z,2594.00
2024-03-12T00:26:49.158Z,2591.00
2024-03-12T00:27:47.614Z,2592.00
2024-03-12T00:28:47.573Z,2586.00
2024-03-12T00:29:47.594Z,2593.00
2024-03-12T00:30:47.627Z,2593.00
2024-03-12T00:31:47.633Z,2590.00
2024-03-12T00:32:47.682Z,2594.00
2024-03-12T00:33:47.709Z,2595.00
2024-03-12T00:34:47.688Z,2590.00
2024-03-12T00:35:47.738Z,2589.00
2024-03-12T00:36:47.840Z,2593.00
2024-03-12T00:37:47.895Z,2587.00
2024-03-12T00:38:48.052Z,2582.00
2024-03-12T00:39:48.087Z,2584.00
2024-03-12T00:40:48.141Z,2585.00
2024-03-12T00:41:48.203Z,2577.00
2024-03-12T00:42:48.308Z,2575.00
2024-03-12T00:43:48.385Z,2577.00
2024-03-12T00:44:48.428Z,2585.00
2024-03-12T00:45:48.560Z,2577.00
2024-03-12T00:46:48.514Z,2579.00
2024-03-12T00:47:48.591Z,2574.00
2024-03-12T00:48:48.660Z,2573.00
2024-03-12T00:49:48.703Z,2566.00
2024-03-12T00:50:48.777Z,2575.00
2024-03-12T00:51:48.955Z,2566.00
2024-03-12T00:52:48.948Z,2573.00
2024-03-12T00:53:49.042Z,2564.00
2024-03-12T00:54:49.135Z,2558.00
2024-03-12T00:55:49.242Z,2571.00
2024-03-12T00:56:49.296Z,2562.00
2024-03-12T00:57:49.503Z,2565.00
2024-03-12T00:58:49.476Z,2556.00
2024-03-12T00:59:49.587Z,2561.00
2024-03-12T01:00:49.705Z,2556.00
2024-03-12T01:01:49.810Z,2555.00
2024-03-12T01:02:49.867Z,2554.00
2024-03-12T01:03:49.907Z,2551.00
2024-03-12T01:04:49.925Z,2552.00
2024-03-12T01:05:49.999Z,2544.00
2024-03-12T01:06:50.160Z,2552.00
2024-03-12T01:07:50.179Z,2544.00
2024-03-12T01:08:50.218Z,2548.00
2024-03-12T01:09:50.344Z,2545.00
2024-03-12T01:10:50.313Z,2550.00
2024-03-12T01:11:50.352Z,2543.00
2024-03-12T01:12:50.475Z,2543.00
2024-03-12T01:13:50.483Z,2544.00
2024-03-12T01:14:50.510Z,2539.00
2024-03-12T01:15:50.623Z,2542.00
2024-03-12T01:16:50.672Z,2533.00
2024-03-12T01:17:50.741Z,2547.00
2024-03-12T01:18:50.822Z,2535.00
2024-03-12T01:19:50.826Z,2533.00
2024-03-12T01:20:50.909Z,2528.00
2024-03-12T01:21:50.991Z,2534.00
2024-03-12T01:22:50.985Z,2531.00
2024-03-12T01:23:51.056Z,2525.00
2024-03-12T01:24:51.159Z,2534.00
2024-03-12T01:25:51.189Z,2525.00
2024-03-12T01:26:51.244Z,2528.00
2024-03-12T01:27:51.343Z,2526.00
2024-03-12T01:28:51.422Z,2522.00
2024-03-12T01:29:51.481Z,2520.00
2024-03-12T01:30:51.567Z,2514.00
2024-03-12T01:31:51.610Z,2527.00
2024-03-12T01:32:51.722Z,2513.00
2024-03-12T01:33:51.913Z,2523.00
2024-03-12T01:34:51.794Z,2520.00
2024-03-12T01:35:51.815Z,2520.00
2024-03-12T01:36:51.902Z,2511.00
2024-03-12T01:37:51.854Z,2522.00
2024-03-12T01:38:51.863Z,2522.00
2024-03-12T01:39:51.902Z,2517.00
2024-03-12T01:40:51.894Z,2519.00
2024-03-12T01:41:51.912Z,2522.00
2024-03-12T01:42:52.011Z,2515.00
2024-03-12T01:43:51.966Z,2509.00
2024-03-12T01:44:52.014Z,2515.00
2024-03-12T01:45:52.147Z,2513.00
2024-03-12T01:46:52.176Z,2505.00
2024-03-12T01:47:52.317Z,2518.00
2024-03-12T01:48:52.412Z,2504.00
2024-03-12T01:49:52.463Z,2511.00
2024-03-12T01:50:52.472Z,2511.00
2024-03-12T01:51:52.529Z,2512.00
2024-03-12T01:52:52.518Z,2504.00
2024-03-12T01:53:52.544Z,2504.00
2024-03-12T01:54:52.577Z,2509.00
2024-03-12T01:55:52.605Z,2510.00
2024-03-12T01:56:52.628Z,2498.00
2024-03-12T01:57:52.711Z,2503.00
2024-03-12T01:58:52.678Z,2501.00
2024-03-12T01:59:52.681Z,2503.00
2024-03-12T02:00:52.757Z,2504.00
2024-03-12T02:01:52.812Z,2504.00
2024-03-12T02:02:52.809Z,2496.00
2024-03-12T02:03:52.923Z,2500.00
2024-03-12T02:04:52.894Z,2499.00
2024-03-12T02:05:52.970Z,2510.00
2024-03-12T02:06:53.060Z,2499.00
2024-03-12T02:07:53.156Z,2496.00
2024-03-12T02:08:53.192Z,2488.00
2024-03-12T02:09:53.311Z,2490.00
2024-03-12T02:10:53.428Z,2485.00
2024-03-12T02:11:53.456Z,2478.00
2024-03-12T02:12:53.635Z,2483.00
2024-03-12T02:13:53.669Z,2483.00
2024-03-12T02:14:53.740Z,2488.00
2024-03-12T02:15:53.866Z,2492.00
2024-03-12T02:16:53.876Z,2476.00
2024-03-12T02:17:54.149Z,2481.00
2024-03-12T02:18:54.013Z,2481.00
2024-03-12T02:19:54.027Z,2477.00
2024-03-12T02:20:54.105Z,2468.00
2024-03-12T02:21:54.200Z,2469.00
2024-03-12T02:22:54.222Z,2483.00
2024-03-12T02:23:54.287Z,2468.00
2024-03-12T02:24:54.371Z,2466.00
2024-03-12T02:25:54.364Z,2467.00
2024-03-12T02:26:54.402Z,2468.00
2024-03-12T02:27:54.784Z,2467.00
2024-03-12T02:28:54.438Z,2473.00
2024-03-12T02:29:54.547Z,2467.00
2024-03-12T02:30:54.530Z,2468.00
2024-03-12T02:31:54.511Z,2467.00
2024-03-12T02:32:54.554Z,2468.00
2024-03-12T02:33:54.590Z,2469.00
2024-03-12T02:34:54.576Z,2474.00
2024-03-12T02:35:54.613Z,2476.00
2024-03-12T02:36:54.655Z,2482.00
2024-03-12T02:37:54.652Z,2482.00
2024-03-12T02:38:54.666Z,2483.00
2024-03-12T02:39:54.727Z,2482.00
2024-03-12T02:40:54.741Z,2484.00
2024-03-12T02:41:54.738Z,2481.00
2024-03-12T02:42:54.812Z,2482.00
2024-03-12T02:43:54.772Z,2483.00
2024-03-12T02:44:54.801Z,2483.00
2024-03-12T02:45:54.873Z,2488.00
2024-03-12T02:46:54.878Z,2481.00
2024-03-12T02:47:54.873Z,2486.00
2024-03-12T02:48:54.982Z,2478.00
2024-03-12T02:49:54.902Z,2477.00
2024-03-12T02:50:54.953Z,2470.00
2024-03-12T02:51:54.998Z,2472.00
2024-03-12T02:52:54.980Z,2470.00
2024-03-12T02:53:54.999Z,2470.00
2024-03-12T02:54:55.101Z,2462.00
2024-03-12T02:55:55.052Z,2465.00
2024-03-12T02:56:55.105Z,2464.00
2024-03-12T02:57:55.175Z,2462.00
2024-03-12T02:58:55.157Z,2464.00
2024-03-12T02:59:55.140Z,2465.00
2024-03-12T03:00:55.361Z,2467.00
2024-03-12T03:01:55.265Z,2464.00
2024-03-12T03:02:55.205Z,2470.00
2024-03-12T03:03:55.281Z,2463.00
2024-03-12T03:04:55.247Z,2462.00
2024-03-12T03:05:55.261Z,2467.00
2024-03-12T03:06:55.310Z,2444.00
2024-03-12T03:07:55.291Z,2448.00
2024-03-12T03:08:55.357Z,2446.00
2024-03-12T03:09:55.362Z,2455.00
2024-03-12T03:10:55.413Z,2452.00
2024-03-12T03:11:55.385Z,2456.00
2024-03-12T03:12:55.451Z,2443.00
2024-03-12T03:13:55.426Z,2441.00
2024-03-12T03:14:55.472Z,2442.00
2024-03-12T03:15:55.514Z,2436.00
2024-03-12T03:16:55.591Z,2434.00
2024-03-12T03:17:55.542Z,2444.00
2024-03-12T03:18:55.568Z,2447.00
2024-03-12T03:19:55.561Z,2441.00
2024-03-12T03:20:55.571Z,2439.00
2024-03-12T03:21:55.657Z,2428.00
2024-03-12T03:22:55.624Z,2432.00
2024-03-12T03:23:55.678Z,2429.00
2024-03-12T03:24:55.748Z,2429.00
2024-03-12T03:25:55.758Z,2435.00
2024-03-12T03:26:55.814Z,2424.00
2024-03-12T03:27:55.846Z,2421.00
2024-03-12T03:28:55.837Z,2429.00
2024-03-12T03:29:55.861Z,2420.00
2024-03-12T03:30:55.958Z,2424.00
2024-03-12T03:31:55.911Z,2424.00
2024-03-12T03:32:56.000Z,2425.00
2024-03-12T03:33:55.997Z,2427.00
2024-03-12T03:34:55.973Z,2425.00
2024-03-12T03:35:56.003Z,2430.00
2024-03-12T03:36:56.034Z,2437.00
2024-03-12T03:37:56.046Z,2427.00
2024-03-12T03:38:56.068Z,2428.00
2024-03-12T03:39:56.133Z,2415.00
2024-03-12T03:40:56.115Z,2416.00
2024-03-12T03:41:56.324Z,2415.00
2024-03-12T03:42:56.185Z,2418.00
2024-03-12T03:43:56.175Z,2415.00
2024-03-12T03:44:56.207Z,2417.00
2024-03-12T03:45:56.231Z,2411.00
2024-03-12T03:46:56.239Z,2412.00
2024-03-12T03:47:56.285Z,2418.00
2024-03-12T03:48:56.294Z,2411.00
2024-03-12T03:49:56.303Z,2401.00
2024-03-12T03:50:56.324Z,2407.00
2024-03-12T03:51:56.375Z,2407.00
2024-03-12T03:52:56.371Z,2403.00
2024-03-12T03:53:56.393Z,2397.00
2024-03-12T03:54:56.442Z,2406.00
2024-03-12T03:55:56.438Z,2391.00
2024-03-12T03:56:56.457Z,2403.00
2024-03-12T03:57:56.512Z,2402.00
2024-03-12T03:58:56.488Z,2396.00
2024-03-12T03:59:56.507Z,2393.00
2024-03-12T04:00:56.598Z,2402.00
2024-03-12T04:01:56.600Z,2391.00
2024-03-12T04:02:56.565Z,2392.00
2024-03-12T04:03:56.638Z,2393.00
2024-03-12T04:04:56.618Z,2392.00
2024-03-12T04:05:56.638Z,2397.00
2024-03-12T04:06:56.698Z,2388.00
2024-03-12T04:07:56.694Z,2381.00
2024-03-12T04:08:56.726Z,2379.00
2024-03-12T04:09:56.752Z,2381.00
2024-03-12T04:10:56.840Z,2388.00
2024-03-12T04:11:56.789Z,2375.00
2024-03-12T04:12:56.839Z,2385.00
2024-03-12T04:13:56.823Z,2385.00
2024-03-12T04:14:56.860Z,2385.00
2024-03-12T04:15:56.893Z,2386.00
2024-03-12T04:16:56.893Z,2385.00
2024-03-12T04:17:56.964Z,2388.00
2024-03-12T04:18:56.964Z,2385.00
2024-03-12T04:19:56.972Z,2380.00
2024-03-12T04:20:56.997Z,2384.00
2024-03-12T04:21:57.085Z,2372.00
2024-03-12T04:22:57.214Z,2375.00
2024-03-12T04:23:57.073Z,2379.00
2024-03-12T04:24:57.132Z,2373.00
2024-03-12T04:25:57.130Z,2374.00
2024-03-12T04:26:57.157Z,2370.00
2024-03-12T04:28:04.448Z,600.00
2024-03-12T04:29:04.415Z,600.00
2024-03-12T04:30:04.415Z,600.00
2024-03-12T04:31:11.706Z,600.00
2024-03-12T04:32:11.678Z,600.00
2024-03-12T04:33:11.769Z,600.00
2024-03-12T04:34:11.760Z,600.00
2024-03-12T04:35:11.829Z,600.00
2024-03-12T04:36:11.732Z,605.00
2024-03-12T04:37:11.835Z,601.00
2024-03-12T04:38:13.940Z,601.00
2024-03-12T04:39:11.786Z,601.00
2024-03-12T04:40:11.906Z,601.00
2024-03-12T04:41:11.801Z,601.00
2024-03-12T04:42:11.818Z,601.00
2024-03-12T04:43:11.881Z,599.00
2024-03-12T04:44:11.849Z,601.00
2024-03-12T04:45:11.857Z,599.00
2024-03-12T04:46:11.989Z,602.00
2024-03-12T04:47:11.874Z,603.00
2024-03-12T04:48:11.932Z,603.00
2024-03-12T04:49:12.064Z,603.00
2024-03-12T04:50:12.028Z,601.00
2024-03-12T04:51:12.214Z,603.00
2024-03-12T04:52:12.221Z,603.00
2024-03-12T04:53:12.263Z,604.00
2024-03-12T04:54:12.334Z,602.00
2024-03-12T04:55:12.433Z,601.00
2024-03-12T04:56:12.518Z,605.00
2024-03-12T04:57:12.582Z,604.00
2024-03-12T04:58:12.659Z,608.00
2024-03-12T04:59:12.707Z,602.00
2024-03-12T05:00:12.836Z,601.00
2024-03-12T05:01:12.968Z,604.00
2024-03-12T05:02:12.958Z,607.00
2024-03-12T05:03:12.997Z,601.00
2024-03-12T05:04:18.765Z,604.00
2024-03-12T05:05:13.995Z,607.00
2024-03-12T05:06:13.012Z,604.00
2024-03-12T05:07:13.164Z,604.00
2024-03-12T05:08:13.049Z,604.00
2024-03-12T05:09:13.072Z,604.00
2024-03-12T05:10:13.343Z,606.00
2024-03-12T05:11:13.166Z,604.00
2024-03-12T05:12:13.118Z,601.00
2024-03-12T05:13:13.262Z,600.00
2024-03-12T05:14:13.207Z,601.00
2024-03-12T05:15:13.227Z,601.00
2024-03-12T05:16:13.309Z,602.00
2024-03-12T05:17:13.251Z,602.00
2024-03-12T05:18:13.283Z,601.00
2024-03-12T05:19:13.623Z,601.00
2024-03-12T05:20:13.295Z,602.00
2024-03-12T05:21:13.310Z,603.00
2024-03-12T05:22:13.441Z,603.00
2024-03-12T05:23:13.354Z,601.00
2024-03-12T05:24:13.360Z,604.00
2024-03-12T05:25:13.403Z,604.00
2024-03-12T05:26:13.380Z,601.00
2024-03-12T05:27:13.394Z,606.00
2024-03-12T05:28:13.667Z,602.00
2024-03-12T05:29:13.548Z,605.00
2024-03-12T05:30:13.596Z,602.00
2024-03-12T05:31:13.727Z,604.00
2024-03-12T05:32:13.708Z,604.00
2024-03-12T05:33:13.780Z,603.00
2024-03-12T05:34:13.858Z,607.00
2024-03-12T05:35:13.814Z,603.00
2024-03-12T05:36:13.856Z,605.00
2024-03-12T05:37:14.056Z,605.00
2024-03-12T05:38:13.960Z,601.00
2024-03-12T05:39:13.999Z,604.00
2024-03-12T05:40:14.246Z,604.00
2024-03-12T05:41:14.113Z,607.00
2024-03-12T05:42:14.189Z,604.00
2024-03-12T05:43:14.260Z,604.00
2024-03-12T05:44:14.225Z,604.00
2024-03-12T05:45:14.233Z,604.00
2024-03-12T05:46:14.379Z,603.00
2024-03-12T05:47:14.256Z,605.00
2024-03-12T05:48:14.257Z,602.00
2024-03-12T05:49:14.437Z,603.00
2024-03-12T05:50:14.287Z,606.00
2024-03-12T05:51:14.292Z,603.00
2024-03-12T05:52:14.380Z,604.00
2024-03-12T05:53:14.331Z,605.00
2024-03-12T05:54:14.338Z,605.00
2024-03-12T05:55:14.423Z,605.00
2024-03-12T05:56:16.948Z,605.00
2024-03-12T05:57:14.389Z,605.00
2024-03-12T05:58:14.433Z,605.00
2024-03-12T05:59:14.413Z,607.00
2024-03-12T06:00:14.387Z,607.00
2024-03-12T06:01:14.847Z,608.00
2024-03-12T06:02:14.447Z,605.00
2024-03-12T06:03:14.427Z,608.00
2024-03-12T06:04:14.545Z,606.00
2024-03-12T06:05:14.561Z,606.00
2024-03-12T06:06:14.554Z,608.00
2024-03-12T06:07:15.825Z,606.00
2024-03-12T06:08:14.464Z,606.00
2024-03-12T06:09:14.487Z,607.00
2024-03-12T06:10:14.598Z,606.00
2024-03-12T06:11:14.544Z,607.00
2024-03-12T06:12:14.517Z,607.00
2024-03-12T06:13:14.590Z,607.00
2024-03-12T06:14:14.535Z,605.00
2024-03-12T06:15:14.539Z,608.00
2024-03-12T06:16:14.704Z,606.00
2024-03-12T06:17:14.555Z,608.00
2024-03-12T06:18:14.572Z,605.00
2024-03-12T06:19:14.704Z,605.00
2024-03-12T06:20:14.602Z,606.00
2024-03-12T06:21:14.613Z,606.00
2024-03-12T06:22:14.695Z,606.00
2024-03-12T06:23:14.649Z,606.00
2024-03-12T06:24:14.648Z,610.00
2024-03-12T06:25:14.719Z,607.00
2024-03-12T06:26:14.693Z,607.00
2024-03-12T06:27:14.700Z,605.00
2024-03-12T06:28:14.775Z,607.00
2024-03-12T06:29:14.731Z,606.00
2024-03-12T06:30:14.807Z,605.00
2024-03-12T06:31:14.943Z,605.00
2024-03-12T06:32:14.946Z,605.00
2024-03-12T06:33:15.025Z,602.00
2024-03-12T06:34:15.092Z,599.00
2024-03-12T06:35:15.024Z,588.00
2024-03-12T06:36:14.975Z,579.00
2024-03-12T06:37:15.029Z,600.00
2024-03-12T06:38:15.006Z,603.00
2024-03-12T06:39:15.145Z,604.00
2024-03-12T06:40:15.487Z,601.00
2024-03-12T06:41:15.189Z,600.00
2024-03-12T06:42:15.235Z,602.00
2024-03-12T06:43:15.583Z,600.00
2024-03-12T06:44:15.354Z,602.00
2024-03-12T06:45:15.424Z,602.00
2024-03-12T06:46:15.511Z,603.00
2024-03-12T06:47:15.551Z,600.00
2024-03-12T06:48:15.623Z,601.00
2024-03-12T06:49:15.660Z,603.00
2024-03-12T06:50:15.684Z,604.00
2024-03-12T06:51:15.702Z,596.00
2024-03-12T06:52:15.819Z,607.00
2024-03-12T06:53:15.902Z,600.00
2024-03-12T06:54:15.833Z,586.00
2024-03-12T06:55:17.316Z,574.00
2024-03-12T06:56:15.993Z,568.00
2024-03-12T06:57:16.105Z,548.00
2024-03-12T06:58:16.127Z,549.00
2024-03-12T06:59:16.111Z,511.00
2024-03-12T07:00:16.133Z,481.00
2024-03-12T07:01:16.153Z,456.00
2024-03-12T07:02:16.231Z,427.00
2024-03-12T07:03:16.191Z,409.00
2024-03-12T07:04:16.236Z,409.00
2024-03-12T07:05:16.210Z,449.00
2024-03-12T07:06:16.282Z,489.00
2024-03-12T07:07:16.320Z,535.00
2024-03-12T07:08:16.256Z,579.00
2024-03-12T07:09:16.272Z,609.00
2024-03-12T07:10:16.329Z,623.00
2024-03-12T07:11:16.325Z,636.00
2024-03-12T07:12:16.335Z,648.00
2024-03-12T07:13:16.443Z,657.00
2024-03-12T07:14:16.421Z,676.00
2024-03-12T07:15:16.490Z,717.00
2024-03-12T07:16:16.632Z,718.00
2024-03-12T07:17:16.572Z,725.00
2024-03-12T07:18:16.604Z,720.00
2024-03-12T07:19:16.660Z,735.00
2024-03-12T07:20:16.758Z,771.00
2024-03-12T07:21:16.586Z,825.00
2024-03-12T07:22:16.620Z,925.00
2024-03-12T07:23:16.623Z,955.00
2024-03-12T07:24:16.633Z,992.00
2024-03-12T07:25:16.705Z,1019.00
2024-03-12T07:26:16.646Z,1056.00
2024-03-12T07:27:16.641Z,1079.00
2024-03-12T07:28:17.430Z,1114.00
2024-03-12T07:29:16.685Z,1131.00
2024-03-12T07:30:16.670Z,1156.00
2024-03-12T07:31:16.761Z,1164.00
2024-03-12T07:32:16.738Z,1157.00
2024-03-12T07:33:16.732Z,1107.00
2024-03-12T07:34:18.650Z,1066.00
2024-03-12T07:35:16.733Z,1042.00
2024-03-12T07:36:16.749Z,951.00
2024-03-12T07:37:16.792Z,889.00
2024-03-12T07:38:16.781Z,836.00
2024-03-12T07:39:16.807Z,777.00
2024-03-12T07:40:17.368Z,712.00
2024-03-12T07:41:16.817Z,646.00
2024-03-12T07:42:16.829Z,612.00
2024-03-12T07:43:16.911Z,599.00
2024-03-12T07:44:16.853Z,591.00
2024-03-12T07:45:16.863Z,600.00
2024-03-12T07:46:16.913Z,599.00
2024-03-12T07:47:16.920Z,602.00
2024-03-12T07:48:17.137Z,597.00
2024-03-12T07:49:17.061Z,576.00
2024-03-12T07:50:17.016Z,536.00
2024-03-12T07:51:17.131Z,526.00
2024-03-12T07:52:17.139Z,503.00
2024-03-12T07:53:17.083Z,474.00
2024-03-12T07:54:17.092Z,490.00
2024-03-12T07:55:17.172Z,492.00
2024-03-12T07:56:17.226Z,516.00
2024-03-12T07:57:18.856Z,528.00
2024-03-12T07:58:17.204Z,549.00
2024-03-12T07:59:17.229Z,568.00
2024-03-12T08:00:17.262Z,592.00
2024-03-12T08:01:17.279Z,600.00
2024-03-12T08:02:17.278Z,600.00
2024-03-12T08:03:17.281Z,600.00
2024-03-12T08:04:17.467Z,599.00
2024-03-12T08:05:17.366Z,600.00
2024-03-12T08:06:17.359Z,600.00
2024-03-12T08:07:17.453Z,607.00
2024-03-12T08:08:17.411Z,600.00
2024-03-12T08:09:17.449Z,605.00
2024-03-12T08:10:17.562Z,600.00
2024-03-12T08:11:17.499Z,599.00
2024-03-12T08:12:17.925Z,600.00
2024-03-12T08:13:17.571Z,606.00
2024-03-12T08:14:17.573Z,601.00
2024-03-12T08:15:17.597Z,610.00
2024-03-12T08:16:17.677Z,599.00
2024-03-12T08:17:17.648Z,600.00
2024-03-12T08:18:21.588Z,605.00
2024-03-12T08:19:17.824Z,591.00
2024-03-12T08:20:17.755Z,588.00
2024-03-12T08:21:17.783Z,576.00
2024-03-12T08:22:17.829Z,568.00
2024-03-12T08:23:17.795Z,569.00
2024-03-12T08:24:17.838Z,615.00
2024-03-12T08:25:20.470Z,617.00
2024-03-12T08:26:17.877Z,610.00
2024-03-12T08:27:17.895Z,618.00
2024-03-12T08:28:18.007Z,607.00
2024-03-12T08:29:17.940Z,618.00
2024-03-12T08:30:17.949Z,618.00
2024-03-12T08:31:28.231Z,618.00
2024-03-12T08:32:19.016Z,618.00
2024-03-12T08:33:18.048Z,618.00
2024-03-12T08:34:18.124Z,621.00
2024-03-12T08:35:18.061Z,621.00
2024-03-12T08:36:18.087Z,626.00
2024-03-12T08:37:18.134Z,643.00
2024-03-12T08:38:18.147Z,695.00
2024-03-12T08:39:18.196Z,687.00
2024-03-12T08:40:18.268Z,692.00
2024-03-12T08:41:18.206Z,681.00
2024-03-12T08:42:18.236Z,689.00
2024-03-12T08:43:18.283Z,679.00
2024-03-12T08:44:18.304Z,684.00
2024-03-12T08:45:21.328Z,662.00
2024-03-12T08:46:18.406Z,662.00
2024-03-12T08:47:18.436Z,657.00
2024-03-12T08:48:18.452Z,643.00
2024-03-12T08:49:18.543Z,632.00
2024-03-12T08:50:18.672Z,613.00
2024-03-12T08:51:18.545Z,603.00
2024-03-12T08:52:18.644Z,600.00
2024-03-12T08:53:18.605Z,604.00
2024-03-12T08:54:18.649Z,600.00
2024-03-12T08:55:18.771Z,611.00
2024-03-12T08:56:18.736Z,604.00
2024-03-12T08:57:18.770Z,605.00
2024-03-12T08:58:18.847Z,608.00
2024-03-12T08:59:18.830Z,600.00
2024-03-12T09:00:18.885Z,614.00
2024-03-12T09:01:19.067Z,631.00
2024-03-12T09:02:18.939Z,646.00
2024-03-12T09:03:18.981Z,672.00
2024-03-12T09:04:19.194Z,738.00
2024-03-12T09:05:19.021Z,818.00
2024-03-12T09:06:19.045Z,866.00
2024-03-12T09:07:19.136Z,948.00
2024-03-12T09:08:19.130Z,1007.00
2024-03-12T09:09:19.220Z,1101.00
2024-03-12T09:10:19.341Z,1185.00
2024-03-12T09:11:19.427Z,1245.00
2024-03-12T09:12:19.386Z,1331.00
2024-03-12T09:13:19.443Z,1392.00
2024-03-12T09:14:19.494Z,1441.00
2024-03-12T09:15:20.650Z,1518.00
2024-03-12T09:16:19.667Z,1573.00
2024-03-12T09:17:19.689Z,1655.00
2024-03-12T09:18:21.371Z,1727.00
2024-03-12T09:19:19.774Z,1783.00
2024-03-12T09:20:19.739Z,1852.00
2024-03-12T09:21:19.927Z,1918.00
2024-03-12T09:22:19.804Z,1921.00
2024-03-12T09:23:19.781Z,1937.00
2024-03-12T09:24:19.809Z,1983.00
2024-03-12T09:25:20.007Z,2064.00
2024-03-12T09:26:19.821Z,2201.00
2024-03-12T09:27:19.833Z,2266.00
2024-03-12T09:28:19.925Z,2319.00
2024-03-12T09:29:19.869Z,2358.00
2024-03-12T09:30:19.877Z,2360.00
2024-03-12T09:31:20.210Z,2366.00
2024-03-12T09:32:19.904Z,2388.00
2024-03-12T09:33:19.910Z,2362.00
2024-03-12T09:34:19.987Z,2376.00
2024-03-12T09:35:19.947Z,2405.00
2024-03-12T09:36:19.949Z,2447.00
2024-03-12T09:37:19.978Z,2516.00
2024-03-12T09:38:19.997Z,2523.00
2024-03-12T09:39:19.995Z,2536.00
2024-03-12T09:40:20.059Z,2528.00
2024-03-12T09:41:20.022Z,2519.00
2024-03-12T09:42:20.016Z,2526.00
2024-03-12T09:43:20.087Z,2528.00
2024-03-12T09:44:20.046Z,2513.00
2024-03-12T09:45:20.087Z,2505.00
2024-03-12T09:46:20.063Z,2488.00
2024-03-12T09:47:20.048Z,2455.00
2024-03-12T09:48:20.062Z,2441.00
2024-03-12T09:49:20.117Z,2403.00
2024-03-12T09:50:20.070Z,2341.00
2024-03-12T09:51:20.091Z,2209.00
2024-03-12T09:52:20.143Z,2080.00
2024-03-12T09:53:20.117Z,1969.00
2024-03-12T09:54:20.130Z,1834.00
2024-03-12T09:55:20.176Z,1739.00
2024-03-12T09:56:20.173Z,1636.00
2024-03-12T09:57:20.152Z,1584.00
2024-03-12T09:58:20.243Z,1469.00
2024-03-12T09:59:20.329Z,1397.00
2024-03-12T10:00:20.729Z,1322.00
2024-03-12T10:01:20.490Z,1241.00
2024-03-12T10:02:20.486Z,1178.00
2024-03-12T10:03:20.486Z,1142.00
2024-03-12T10:04:20.507Z,1136.00
2024-03-12T10:05:20.474Z,1141.00
2024-03-12T10:06:20.482Z,1159.00
2024-03-12T10:07:20.542Z,1183.00
2024-03-12T10:08:20.540Z,1220.00
2024-03-12T10:09:20.517Z,1270.00
2024-03-12T10:10:20.709Z,1307.00
2024-03-12T10:11:20.656Z,1347.00
2024-03-12T10:12:20.550Z,1392.00
2024-03-12T10:13:20.626Z,1429.00
2024-03-12T10:14:20.583Z,1453.00
2024-03-12T10:15:20.612Z,1492.00
2024-03-12T10:16:20.654Z,1537.00
2024-03-12T10:17:20.717Z,1578.00
2024-03-12T10:18:20.816Z,1618.00
2024-03-12T10:19:20.953Z,1650.00
2024-03-12T10:20:20.936Z,1695.00
2024-03-12T10:21:21.002Z,1727.00
2024-03-12T10:22:21.097Z,1757.00
2024-03-12T10:23:21.142Z,1788.00
2024-03-12T10:24:21.210Z,1828.00
2024-03-12T10:25:21.294Z,1859.00
2024-03-12T10:26:21.315Z,1905.00
2024-03-12T10:27:21.360Z,1944.00
2024-03-12T10:28:21.435Z,1978.00
2024-03-12T10:29:21.470Z,2014.00
2024-03-12T10:30:21.507Z,2036.00
2024-03-12T10:31:21.648Z,2067.00
2024-03-12T10:32:21.539Z,2068.00
2024-03-12T10:33:21.547Z,2076.00
2024-03-12T10:34:22.041Z,2093.00
2024-03-12T10:35:21.551Z,2122.00
2024-03-12T10:36:21.554Z,2171.00
2024-03-12T10:37:21.592Z,2178.00
2024-03-12T10:38:21.565Z,2183.00
2024-03-12T10:39:21.613Z,2184.00
2024-03-12T10:40:21.765Z,2187.00
2024-03-12T10:41:22.898Z,2191.00
2024-03-12T10:42:21.570Z,2208.00
2024-03-12T10:43:22.408Z,2216.00
2024-03-12T10:44:21.606Z,2035.00
2024-03-12T10:45:21.600Z,1906.00
2024-03-12T10:46:21.669Z,1778.00
2024-03-12T10:47:21.621Z,1600.00
2024-03-12T10:48:21.696Z,1462.00
2024-03-12T10:49:22.200Z,1380.00
2024-03-12T10:50:21.665Z,1315.00
2024-03-12T10:51:21.673Z,1283.00
2024-03-12T10:52:21.712Z,1269.00
2024-03-12T10:53:21.700Z,1272.00
2024-03-12T10:54:21.719Z,1283.00
2024-03-12T10:55:21.735Z,1300.00
2024-03-12T10:56:21.753Z,1322.00
2024-03-12T10:57:21.763Z,1351.00
2024-03-12T10:58:21.802Z,1370.00
2024-03-12T10:59:21.770Z,1390.00
2024-03-12T11:00:21.814Z,1438.00
2024-03-12T11:01:22.016Z,1472.00
2024-03-12T11:02:21.852Z,1479.00
2024-03-12T11:03:21.879Z,1526.00
2024-03-12T11:04:21.911Z,1526.00
2024-03-12T11:05:21.907Z,1535.00
2024-03-12T11:06:21.912Z,1561.00
2024-03-12T11:07:21.942Z,1609.00
2024-03-12T11:08:21.918Z,1701.00
2024-03-12T11:09:21.921Z,1754.00
2024-03-12T11:10:21.977Z,1769.00
2024-03-12T11:11:21.981Z,1789.00
2024-03-12T11:12:21.925Z,1784.00
2024-03-12T11:13:22.086Z,1785.00
2024-03-12T11:14:21.976Z,1788.00
2024-03-12T11:15:21.951Z,1794.00
2024-03-12T11:16:22.140Z,1785.00
2024-03-12T11:17:21.955Z,1788.00
2024-03-12T11:18:21.945Z,1793.00
2024-03-12T11:19:22.136Z,1803.00
2024-03-12T11:20:24.042Z,1821.00
2024-03-12T11:21:21.969Z,1786.00
2024-03-12T11:22:22.029Z,1786.00
2024-03-12T11:23:21.963Z,1792.00
2024-03-12T11:24:21.981Z,1802.00
2024-03-12T11:25:22.007Z,1813.00
2024-03-12T11:27:22.050Z,1790.00
2024-03-12T11:28:22.393Z,1798.00
2024-03-12T11:29:22.016Z,1832.00
2024-03-12T11:30:22.025Z,1880.00
2024-03-12T11:31:22.073Z,1910.00
2024-03-12T11:32:22.038Z,1930.00
2024-03-12T11:33:22.036Z,1944.00
2024-03-12T11:34:22.065Z,1969.00
2024-03-12T11:35:22.072Z,1982.00
2024-03-12T11:36:22.110Z,1958.00
2024-03-12T11:37:22.154Z,1966.00
2024-03-12T11:38:22.141Z,1967.00
2024-03-12T11:39:22.150Z,1971.00
2024-03-12T11:40:22.151Z,1979.00
2024-03-12T11:41:22.164Z,1991.00
2024-03-12T11:42:22.166Z,2012.00
2024-03-12T11:43:22.200Z,1968.00
2024-03-12T11:44:22.189Z,1979.00
2024-03-12T11:45:22.224Z,1993.00
2024-03-12T11:46:22.417Z,2009.00
2024-03-12T11:47:22.212Z,2078.00
2024-03-12T11:48:22.241Z,2095.00
2024-03-12T11:49:22.230Z,2134.00
2024-03-12T11:50:22.238Z,2147.00
2024-03-12T11:51:22.238Z,2166.00
2024-03-12T11:52:22.249Z,2184.00
2024-03-12T11:53:22.308Z,2189.00
2024-03-12T11:54:22.353Z,2198.00
2024-03-12T11:55:22.391Z,2190.00
2024-03-12T11:56:22.437Z,2179.00
2024-03-12T11:57:22.478Z,2166.00
2024-03-12T11:58:22.517Z,2138.00
2024-03-12T11:59:22.563Z,2122.00
2024-03-12T12:00:22.661Z,2104.00
2024-03-12T12:01:22.724Z,2075.00
2024-03-12T12:02:22.625Z,2058.00
2024-03-12T12:03:22.622Z,2055.00
2024-03-12T12:04:22.665Z,2065.00
2024-03-12T12:05:22.619Z,2058.00
2024-03-12T12:06:22.628Z,2049.00
2024-03-12T12:07:22.726Z,2030.00
2024-03-12T12:08:22.653Z,2029.00
2024-03-12T12:09:22.658Z,2024.00
2024-03-12T12:10:22.715Z,2026.00
2024-03-12T12:11:22.709Z,2014.00
2024-03-12T12:12:22.674Z,2020.00
2024-03-12T12:13:22.674Z,2022.00
2024-03-12T12:14:22.680Z,2022.00
2024-03-12T12:15:22.694Z,2015.00